Time;durP1;ratioP1;P1;durP2;ratioP2;P2;SDS_P1;SDS_P2;PMS_P1;PMS_P2;Temp;Humidity;BMP_temperature;BMP_pressure;BME280_temperature;BME280_humidity;BME280_pressure;Samples;Min_cycle;Max_cycle;Signal;HPM_P1;HPM_P2
2021/05/13 00:00:58;;;;;;;10.75;8.33;;;;;;;7.76;80.04;100557.52;1789888;80;21025;-74
2021/05/13 00:03:26;;;;;;;12.65;9.60;;;;;;;7.74;80.29;100560.69;1764403;80;21478;-73
2021/05/13 00:05:54;;;;;;;10.82;8.45;;;;;;;7.74;80.41;100570.66;1764229;80;20870;-73
2021/05/13 00:08:20;;;;;;;14.38;8.55;;;;;;;7.73;80.09;100567.65;1789757;80;20886;-74
2021/05/13 00:10:47;;;;;;;10.55;8.13;;;;;;;7.74;79.87;100571.12;1764314;81;21406;-74
2021/05/13 00:13:16;;;;;;;10.32;8.73;;;;;;;7.71;79.75;100570.79;1789753;80;20973;-73
2021/05/13 00:15:44;;;;;;;13.15;9.70;;;;;;;7.68;79.67;100567.03;1764376;80;20933;-74
2021/05/13 00:18:12;;;;;;;11.85;9.70;;;;;;;7.65;79.74;100564.12;1789922;80;20917;-72
2021/05/13 00:20:42;;;;;;;14.53;10.30;;;;;;;7.63;79.92;100571.64;1764278;81;20989;-72
2021/05/13 00:23:09;;;;;;;13.45;10.43;;;;;;;7.61;80.32;100578.70;1790008;80;20906;-73
2021/05/13 00:25:36;;;;;;;12.15;8.85;;;;;;;7.59;80.60;100570.94;1764553;80;21579;-73
2021/05/13 00:28:04;;;;;;;10.63;8.40;;;;;;;7.61;80.65;100581.31;1789868;80;21434;-73
2021/05/13 00:30:31;;;;;;;12.03;8.33;;;;;;;7.61;80.53;100581.31;1789651;80;20866;-72
2021/05/13 00:32:57;;;;;;;9.30;7.83;;;;;;;7.59;80.53;100583.98;1764312;81;20929;-74
2021/05/13 00:35:24;;;;;;;12.03;8.50;;;;;;;7.59;80.70;100580.54;1789979;80;20893;-73
2021/05/13 00:37:51;;;;;;;12.55;9.28;;;;;;;7.58;80.88;100583.61;1789881;80;21134;-74
2021/05/13 00:40:19;;;;;;;10.60;7.60;;;;;;;7.58;81.05;100584.05;1764372;81;20928;-74
2021/05/13 00:42:46;;;;;;;11.90;8.93;;;;;;;7.59;81.11;100579.23;1789983;80;21017;-74
2021/05/13 00:50:25;;;;;;;16.00;10.75;;;;;;;7.55;81.02;100579.83;1788834;80;21430;-73
2021/05/13 00:52:52;;;;;;;16.17;10.68;;;;;;;7.51;81.17;100578.28;1789053;80;21054;-73
2021/05/13 00:55:20;;;;;;;16.37;10.58;;;;;;;7.52;81.59;100589.59;1788804;80;20913;-72
2021/05/13 00:57:50;;;;;;;13.85;9.70;;;;;;;7.51;81.93;100585.27;1788913;80;21383;-73
2021/05/13 01:02:57;;;;;;;15.18;9.80;;;;;;;7.52;82.29;100579.98;1789026;80;20874;-74
2021/05/13 01:05:25;;;;;;;14.68;9.98;;;;;;;7.57;82.42;100582.38;1788924;80;21087;-73
2021/05/13 01:07:52;;;;;;;15.05;11.33;;;;;;;7.59;82.48;100584.45;1788933;80;21478;-72
2021/05/13 01:10:19;;;;;;;15.05;11.50;;;;;;;7.63;82.53;100580.78;1788877;80;20886;-76
2021/05/13 01:12:47;;;;;;;18.35;11.20;;;;;;;7.67;82.47;100577.11;1788635;80;21438;-74
2021/05/13 01:15:23;;;;;;;14.78;10.63;;;;;;;7.70;82.48;100578.25;1788699;80;20910;-75
2021/05/13 01:17:54;;;;;;;15.90;11.00;;;;;;;7.75;82.45;100584.55;1787241;80;21296;-73
2021/05/13 01:20:12;;;;;;;16.50;11.30;;;;;;;7.76;82.21;100588.84;1786588;80;21008;-75
2021/05/13 01:22:39;;;;;;;17.82;12.60;;;;;;;7.73;82.04;100585.08;1788929;80;20886;-74
2021/05/13 01:25:08;;;;;;;18.37;11.95;;;;;;;7.71;81.94;100589.06;1788836;79;20898;-73
2021/05/13 01:27:35;;;;;;;18.95;12.73;;;;;;;7.71;81.74;100590.83;1788867;80;21494;-73
2021/05/13 01:30:02;;;;;;;18.37;13.20;;;;;;;7.68;81.72;100596.59;1788863;80;20988;-72
2021/05/13 01:32:29;;;;;;;17.55;11.50;;;;;;;7.67;81.75;100596.69;1788716;80;20910;-72
2021/05/13 01:34:56;;;;;;;16.05;11.63;;;;;;;7.65;81.79;100594.14;1788998;80;20973;-73
2021/05/13 01:37:23;;;;;;;14.20;11.05;;;;;;;7.64;81.83;100593.73;1788890;80;20965;-71
2021/05/13 01:39:51;;;;;;;13.60;9.40;;;;;;;7.63;81.82;100584.70;1789027;80;21000;-73
2021/05/13 01:42:18;;;;;;;16.27;10.70;;;;;;;7.64;81.67;100587.21;1758718;80;21101;-73
2021/05/13 01:44:45;;;;;;;17.23;10.55;;;;;;;7.65;81.43;100592.00;1788959;80;20973;-73
2021/05/13 01:47:12;;;;;;;14.90;10.68;;;;;;;7.63;81.35;100588.61;1784412;80;20945;-74
2021/05/13 01:49:39;;;;;;;15.93;11.38;;;;;;;7.63;81.24;100593.83;1781247;80;21013;-74
2021/05/13 01:52:06;;;;;;;12.90;10.18;;;;;;;7.60;81.05;100594.83;1781199;80;21386;-74
2021/05/13 01:54:33;;;;;;;17.35;10.30;;;;;;;7.56;80.73;100598.50;1781342;80;21129;-74
2021/05/13 01:57:06;;;;;;;13.55;10.00;;;;;;;7.53;80.54;100612.14;1781186;80;21053;-74
2021/05/13 01:59:33;;;;;;;12.13;8.53;;;;;;;7.47;80.44;100605.00;1780937;80;20946;-75
2021/05/13 02:02:00;;;;;;;12.55;10.05;;;;;;;7.40;80.42;100595.78;1780555;80;21053;-75
2021/05/13 02:04:29;;;;;;;13.68;9.30;;;;;;;7.38;80.43;100601.52;1780680;80;20879;-74
2021/05/13 02:06:56;;;;;;;13.18;8.98;;;;;;;7.35;80.45;100607.33;1780630;80;21067;-74
2021/05/13 02:09:22;;;;;;;14.23;11.08;;;;;;;7.28;80.40;100607.23;1780463;80;21014;-73
2021/05/13 02:11:49;;;;;;;14.73;10.85;;;;;;;7.22;80.48;100600.53;1780310;80;20890;-75
2021/05/13 02:14:17;;;;;;;14.43;9.85;;;;;;;7.20;80.53;100607.58;1780391;80;20898;-73
2021/05/13 02:16:44;;;;;;;12.40;10.75;;;;;;;7.17;80.28;100616.39;1780496;80;20966;-73
2021/05/13 02:19:10;;;;;;;12.50;10.00;;;;;;;7.12;80.31;100620.98;1780596;80;21046;-73
2021/05/13 02:21:38;;;;;;;11.97;8.93;;;;;;;7.07;80.46;100624.27;1780409;80;20930;-73
2021/05/13 02:24:08;;;;;;;10.88;9.35;;;;;;;7.02;80.68;100619.69;1780451;80;20894;-73
2021/05/13 02:26:35;;;;;;;13.03;9.15;;;;;;;6.96;81.20;100624.74;1780533;80;20922;-73
2021/05/13 02:29:02;;;;;;;11.25;9.83;;;;;;;6.95;81.70;100626.95;1780549;80;20922;-72
2021/05/13 02:31:29;;;;;;;12.40;9.18;;;;;;;6.98;81.80;100633.34;1780601;80;21014;-72
2021/05/13 02:33:55;;;;;;;14.25;9.50;;;;;;;7.00;81.77;100629.34;1780709;80;20906;-74
2021/05/13 02:36:22;;;;;;;11.05;9.15;;;;;;;7.01;81.80;100637.57;1780546;80;21497;-74
2021/05/13 02:38:49;;;;;;;10.72;8.80;;;;;;;7.03;81.75;100638.34;1780403;80;20891;-74
2021/05/13 02:41:15;;;;;;;10.60;9.45;;;;;;;7.06;81.65;100648.16;1780524;80;21486;-73
2021/05/13 02:43:42;;;;;;;11.30;9.53;;;;;;;7.07;81.52;100650.34;1780444;80;21097;-74
2021/05/13 02:46:09;;;;;;;15.08;9.83;;;;;;;7.11;81.34;100641.44;1780455;80;20926;-74
2021/05/13 02:48:37;;;;;;;13.08;9.90;;;;;;;7.14;81.19;100633.96;1774686;80;21553;-75
2021/05/13 02:51:04;;;;;;;10.88;9.10;;;;;;;7.16;80.94;100636.01;1774759;80;20935;-73
2021/05/13 02:53:31;;;;;;;10.08;8.53;;;;;;;7.13;80.87;100634.39;1774703;80;20966;-74
2021/05/13 02:55:57;;;;;;;10.60;8.73;;;;;;;7.10;80.84;100633.23;1774807;80;21117;-74
2021/05/13 02:58:24;;;;;;;11.63;8.65;;;;;;;7.08;81.00;100628.55;1774882;80;21010;-73
2021/05/13 03:01:04;;;;;;;10.63;8.20;;;;;;;7.08;81.20;100622.03;1774643;80;20962;-72
2021/05/13 03:03:20;;;;;;;9.20;7.97;;;;;;;7.13;81.62;100620.52;1772922;80;21009;-74
2021/05/13 03:05:48;;;;;;;12.20;9.63;;;;;;;7.19;81.84;100621.55;1774701;80;20933;-74
2021/05/13 03:08:16;;;;;;;12.07;8.98;;;;;;;7.28;81.90;100622.88;1774615;80;21122;-73
2021/05/13 03:10:44;;;;;;;10.82;9.15;;;;;;;7.34;81.79;100614.31;1774775;80;21021;-74
2021/05/13 03:13:19;;;;;;;10.10;9.00;;;;;;;7.42;81.64;100612.64;1774622;80;20958;-74
2021/05/13 03:15:40;;;;;;;11.55;9.20;;;;;;;7.50;81.75;100624.04;1773840;80;20974;-73
2021/05/13 03:18:08;;;;;;;11.90;9.75;;;;;;;7.61;82.03;100619.98;1774753;80;20891;-72
2021/05/13 03:20:38;;;;;;;11.65;9.63;;;;;;;7.73;82.16;100616.41;1774725;80;21556;-73
2021/05/13 03:23:05;;;;;;;10.48;8.08;;;;;;;7.91;82.48;100610.28;1774366;80;21013;-73
2021/05/13 03:25:35;;;;;;;13.35;8.23;;;;;;;8.15;82.52;100606.08;1774656;80;21411;-72
2021/05/13 03:28:11;;;;;;;11.40;9.18;;;;;;;8.39;82.18;100610.06;1774594;80;21027;-74
2021/05/13 03:30:42;;;;;;;10.72;8.03;;;;;;;8.58;81.89;100619.16;1774229;80;21415;-77
2021/05/13 03:33:09;;;;;;;13.88;8.03;;;;;;;8.73;81.71;100632.34;1774576;80;21632;-73
2021/05/13 03:35:36;;;;;;;11.85;8.40;;;;;;;8.83;81.18;100634.40;1774526;80;20890;-75
2021/05/13 03:38:03;;;;;;;12.82;9.60;;;;;;;8.91;80.72;100640.08;1774610;80;21053;-76
2021/05/13 03:40:31;;;;;;;21.52;12.88;;;;;;;8.96;80.32;100642.45;1774681;80;21412;-75
2021/05/13 03:42:59;;;;;;;17.23;12.05;;;;;;;8.96;80.07;100642.89;1774592;80;20918;-75
2021/05/13 03:45:26;;;;;;;13.65;9.85;;;;;;;8.99;79.89;100646.67;1774629;80;21082;-76
2021/05/13 03:47:53;;;;;;;11.40;9.68;;;;;;;9.03;79.91;100654.27;1774595;80;21451;-77
2021/05/13 03:50:20;;;;;;;11.53;9.03;;;;;;;9.06;80.24;100649.34;1774691;80;21025;-76
2021/05/13 03:52:47;;;;;;;12.05;10.18;;;;;;;9.13;80.05;100651.53;1774746;80;21618;-75
2021/05/13 03:55:13;;;;;;;16.02;10.75;;;;;;;9.26;80.30;100653.50;1774650;80;20938;-76
2021/05/13 03:57:41;;;;;;;17.07;11.75;;;;;;;9.43;79.90;100662.59;1774768;80;21441;-73
2021/05/13 04:00:12;;;;;;;16.20;11.95;;;;;;;9.62;79.10;100666.34;1774651;80;21084;-77
2021/05/13 04:02:37;;;;;;;14.75;11.00;;;;;;;9.77;78.50;100672.52;1774072;80;20895;-74
2021/05/13 04:05:06;;;;;;;14.95;11.43;;;;;;;9.91;77.89;100679.59;1774592;80;20978;-74
2021/05/13 04:07:35;;;;;;;15.95;11.25;;;;;;;10.05;77.70;100686.22;1774840;80;21550;-73
2021/05/13 04:10:07;;;;;;;12.60;10.72;;;;;;;10.26;77.47;100692.00;1774552;80;21070;-76
2021/05/13 04:12:38;;;;;;;12.80;10.55;;;;;;;10.56;77.36;100702.97;1774464;80;20970;-75
2021/05/13 04:15:10;;;;;;;10.55;9.38;;;;;;;10.86;76.71;100698.17;1774754;80;21347;-76
2021/05/13 04:17:37;;;;;;;11.35;10.15;;;;;;;11.23;76.08;100701.17;1774527;80;20918;-74
2021/05/13 04:20:06;;;;;;;12.45;9.83;;;;;;;11.66;75.13;100712.48;1774627;80;20954;-73
2021/05/13 04:22:33;;;;;;;10.72;8.60;;;;;;;12.12;74.49;100708.74;1774569;80;21066;-74
2021/05/13 04:24:59;;;;;;;9.73;8.13;;;;;;;12.55;73.52;100703.27;1774677;80;21355;-75
2021/05/13 04:27:26;;;;;;;8.53;7.62;;;;;;;12.89;72.26;100713.66;1774696;80;20910;-77
2021/05/13 04:29:53;;;;;;;8.85;7.95;;;;;;;13.21;70.28;100707.98;1775169;80;20997;-74
2021/05/13 04:32:20;;;;;;;7.40;6.37;;;;;;;13.58;69.68;100709.36;1775106;80;20883;-74
2021/05/13 04:34:47;;;;;;;6.92;5.80;;;;;;;14.02;67.24;100704.84;1774657;80;21076;-75
2021/05/13 04:37:14;;;;;;;8.48;6.40;;;;;;;14.51;66.61;100699.88;1775379;80;21506;-80
2021/05/13 04:39:40;;;;;;;7.62;6.85;;;;;;;15.00;64.10;100691.84;1774794;80;20986;-78
2021/05/13 04:42:08;;;;;;;6.83;5.65;;;;;;;15.45;61.87;100693.16;1774638;80;20918;-80
2021/05/13 04:44:36;;;;;;;6.60;5.60;;;;;;;15.84;60.71;100693.12;1774368;80;20951;-75
2021/05/13 04:47:23;;;;;;;7.80;5.95;;;;;;;16.27;59.27;100676.85;1774525;80;21066;-79
2021/05/13 04:49:32;;;;;;;6.53;5.92;;;;;;;16.71;58.19;100678.90;1771138;80;20993;-77
2021/05/13 04:51:59;;;;;;;6.55;5.62;;;;;;;17.16;56.83;100681.24;1774692;80;20847;-79
2021/05/13 04:54:26;;;;;;;6.90;6.20;;;;;;;17.57;55.43;100683.42;1774674;80;20903;-78
2021/05/13 04:56:53;;;;;;;6.67;6.08;;;;;;;17.97;55.25;100680.72;1774845;80;20978;-79
2021/05/13 04:59:20;;;;;;;10.88;6.40;;;;;;;18.38;52.97;100672.60;1774745;80;21443;-79
2021/05/13 05:01:47;;;;;;;8.93;7.05;;;;;;;18.77;51.74;100660.59;1774638;80;20938;-78
2021/05/13 05:04:14;;;;;;;17.40;6.75;;;;;;;19.12;50.07;100663.93;1774642;80;20970;-76
2021/05/13 05:06:41;;;;;;;6.67;6.03;;;;;;;19.46;49.84;100665.99;1774541;80;21088;-77
2021/05/13 05:09:08;;;;;;;8.38;6.92;;;;;;;19.76;50.08;100660.84;1774755;80;20938;-75
2021/05/13 05:11:34;;;;;;;7.47;6.78;;;;;;;20.02;47.58;100668.09;1774780;80;22248;-79
2021/05/13 05:14:02;;;;;;;8.10;6.17;;;;;;;20.22;46.93;100668.27;1774549;80;20970;-81
2021/05/13 05:16:29;;;;;;;6.90;6.20;;;;;;;20.54;46.74;100670.84;1774666;80;20866;-78
2021/05/13 05:18:56;;;;;;;13.58;6.50;;;;;;;20.81;45.20;100671.23;1774669;80;21395;-79
2021/05/13 05:21:23;;;;;;;8.98;7.08;;;;;;;21.00;45.09;100669.33;1774882;80;20978;-77
2021/05/13 05:23:50;;;;;;;26.23;6.65;;;;;;;21.21;45.18;100672.91;1774613;80;21053;-78
2021/05/13 05:26:20;;;;;;;6.83;6.12;;;;;;;21.48;45.99;100676.74;1774545;80;20882;-78
2021/05/13 05:28:47;;;;;;;7.58;6.97;;;;;;;21.71;45.49;100682.30;1774692;80;20914;-78
2021/05/13 05:31:15;;;;;;;5.97;5.30;;;;;;;21.92;45.21;100678.33;1774680;80;21479;-80
2021/05/13 05:33:41;;;;;;;6.67;5.95;;;;;;;22.17;43.30;100676.54;1774935;80;20989;-79
2021/05/13 05:36:08;;;;;;;7.10;5.65;;;;;;;22.42;43.13;100672.05;1775062;80;21058;-80
2021/05/13 05:38:35;;;;;;;6.42;5.87;;;;;;;22.64;41.05;100669.70;1775088;80;20970;-77
2021/05/13 05:41:05;;;;;;;109.32;11.48;;;;;;;22.75;40.92;100671.50;1774295;80;20967;-77
2021/05/13 05:43:31;;;;;;;62.98;11.50;;;;;;;22.86;41.52;100671.65;1774871;80;21001;-77
2021/05/13 05:45:58;;;;;;;6.50;5.95;;;;;;;23.02;41.82;100668.63;1775069;80;20926;-80
2021/05/13 05:48:25;;;;;;;7.35;6.75;;;;;;;23.09;38.96;100661.58;1777307;80;21105;-77
2021/05/13 05:50:54;;;;;;;7.25;6.55;;;;;;;23.21;39.88;100660.69;1780523;80;20986;-79
2021/05/13 05:53:21;;;;;;;6.58;5.97;;;;;;;23.41;38.95;100660.62;1780495;80;20997;-78
2021/05/13 05:55:48;;;;;;;7.65;7.03;;;;;;;23.68;38.33;100659.29;1780582;80;20918;-78
2021/05/13 05:58:15;;;;;;;6.67;6.08;;;;;;;23.93;39.40;100659.98;1780619;80;20954;-80
2021/05/13 06:00:41;;;;;;;7.42;6.83;;;;;;;24.12;36.76;100652.47;1780572;80;21541;-80
2021/05/13 06:03:08;;;;;;;5.92;5.42;;;;;;;24.35;36.30;100665.86;1780504;80;20913;-77
2021/05/13 06:05:35;;;;;;;7.25;6.55;;;;;;;24.43;35.82;100664.94;1780670;80;20950;-79
2021/05/13 06:08:04;;;;;;;8.18;7.47;;;;;;;24.59;36.19;100664.31;1780540;80;21553;-78
2021/05/13 06:10:31;;;;;;;7.25;6.55;;;;;;;24.84;36.61;100669.42;1780474;80;20942;-79
2021/05/13 06:12:58;;;;;;;6.03;5.53;;;;;;;25.04;35.05;100673.73;1780497;80;21016;-79
2021/05/13 06:15:25;;;;;;;5.65;5.25;;;;;;;25.20;36.21;100666.84;1780554;80;20931;-77
2021/05/13 06:17:52;;;;;;;5.47;4.05;;;;;;;25.30;34.69;100669.74;1780515;80;21025;-79
2021/05/13 06:20:25;;;;;;;3.60;3.40;;;;;;;25.35;33.88;100667.34;1780684;80;20894;-79
2021/05/13 06:22:52;;;;;;;2.93;2.67;;;;;;;25.40;32.58;100664.92;1780825;80;21093;-80
2021/05/13 06:25:19;;;;;;;3.65;3.35;;;;;;;25.39;31.96;100662.76;1780606;80;21108;-79
2021/05/13 06:27:46;;;;;;;3.35;3.08;;;;;;;25.40;32.97;100667.61;1780633;80;21423;-79
2021/05/13 06:30:15;;;;;;;6.78;3.98;;;;;;;25.52;32.55;100665.26;1780494;80;20982;-77
2021/05/13 06:32:45;;;;;;;10.40;3.85;;;;;;;25.71;32.13;100655.25;1781887;80;21068;-78
2021/05/13 06:35:14;;;;;;;5.10;3.30;;;;;;;25.97;32.15;100663.31;1780734;80;20950;-77
2021/05/13 06:37:41;;;;;;;4.15;3.80;;;;;;;26.20;32.15;100664.44;1780626;80;21180;-78
2021/05/13 06:40:09;;;;;;;5.37;3.25;;;;;;;26.44;32.13;100665.36;1780709;80;20874;-77
2021/05/13 06:42:36;;;;;;;4.17;3.15;;;;;;;26.62;31.31;100668.11;1780552;80;21580;-79
2021/05/13 06:45:06;;;;;;;2.77;2.55;;;;;;;26.79;30.34;100661.89;1780138;80;21009;-77
2021/05/13 06:47:33;;;;;;;2.65;2.47;;;;;;;26.95;29.79;100660.24;1780533;80;20965;-77
2021/05/13 06:50:00;;;;;;;8.83;2.62;;;;;;;27.01;29.04;100662.64;1775019;80;21050;-76
2021/05/13 06:52:27;;;;;;;2.62;2.47;;;;;;;27.05;29.28;100658.00;1774397;80;20906;-77
2021/05/13 06:54:54;;;;;;;4.17;3.00;;;;;;;27.29;29.32;100662.08;1774530;80;20890;-78
2021/05/13 06:57:21;;;;;;;2.25;2.15;;;;;;;27.47;29.24;100667.43;1774799;80;21034;-76
2021/05/13 06:59:48;;;;;;;2.95;2.30;;;;;;;27.58;28.08;100658.77;1774695;80;20914;-76
2021/05/13 07:02:15;;;;;;;3.37;2.30;;;;;;;27.53;28.39;100659.89;1775005;80;21408;-77
2021/05/13 07:04:42;;;;;;;3.47;3.17;;;;;;;27.48;28.73;100663.72;1774804;80;20934;-77
2021/05/13 07:07:09;;;;;;;3.70;2.30;;;;;;;27.49;29.19;100664.84;1774769;80;20930;-78
2021/05/13 07:09:37;;;;;;;6.08;4.28;;;;;;;27.47;28.09;100668.78;1774849;80;20914;-82
2021/05/13 07:12:04;;;;;;;4.67;3.25;;;;;;;27.54;28.82;100664.23;1775361;80;21430;-81
2021/05/13 07:14:31;;;;;;;3.00;2.70;;;;;;;27.70;28.29;100660.33;1774764;80;21065;-84
2021/05/13 07:16:58;;;;;;;4.22;2.70;;;;;;;27.86;28.55;100663.22;1775021;80;21367;-83
2021/05/13 07:19:25;;;;;;;4.03;2.72;;;;;;;27.97;27.80;100665.31;1774968;80;20964;-77
2021/05/13 07:21:54;;;;;;;3.12;2.83;;;;;;;28.00;28.34;100658.15;1774555;80;21502;-79
2021/05/13 07:24:21;;;;;;;4.15;3.72;;;;;;;28.09;26.98;100661.48;1774893;80;21608;-79
2021/05/13 07:26:48;;;;;;;5.10;3.08;;;;;;;27.93;27.27;100659.19;1774683;80;21582;-79
2021/05/13 07:29:16;;;;;;;2.50;2.30;;;;;;;27.85;28.91;100656.16;1774658;80;20879;-79
2021/05/13 07:31:43;;;;;;;2.42;2.22;;;;;;;28.01;29.23;100659.80;1774879;80;21009;-78
2021/05/13 07:34:09;;;;;;;3.02;2.62;;;;;;;28.22;29.25;100664.18;1774736;80;20914;-78
2021/05/13 07:36:36;;;;;;;4.25;2.85;;;;;;;28.42;28.74;100665.52;1774799;80;20883;-77
2021/05/13 07:39:06;;;;;;;4.87;3.02;;;;;;;28.67;27.90;100663.55;1753115;80;21059;-78
2021/05/13 07:41:33;;;;;;;2.62;2.40;;;;;;;28.84;28.15;100663.95;1774618;80;20966;-77
2021/05/13 07:44:00;;;;;;;2.40;2.20;;;;;;;29.01;27.67;100665.64;1774672;80;20879;-79
2021/05/13 07:46:33;;;;;;;2.08;1.92;;;;;;;28.98;26.67;100670.13;1774704;80;20922;-78
2021/05/13 07:48:55;;;;;;;2.58;2.10;;;;;;;28.97;26.75;100666.61;1752861;80;21506;-78
2021/05/13 07:51:23;;;;;;;9.98;2.70;;;;;;;28.82;26.52;100669.55;1774738;80;21097;-77
2021/05/13 07:53:50;;;;;;;2.92;2.00;;;;;;;28.72;27.07;100667.30;1774624;80;20937;-78
2021/05/13 07:56:16;;;;;;;10.35;2.00;;;;;;;28.66;25.36;100668.13;1774652;80;20890;-76
2021/05/13 07:58:43;;;;;;;4.08;1.60;;;;;;;28.57;25.66;100660.44;1774463;80;20958;-78
2021/05/13 08:01:10;;;;;;;3.02;2.22;;;;;;;28.57;25.69;100659.09;1774540;80;21391;-79
2021/05/13 08:03:37;;;;;;;6.90;1.85;;;;;;;28.73;25.68;100654.09;1774544;80;21092;-79
2021/05/13 08:06:04;;;;;;;2.60;1.92;;;;;;;28.87;25.96;100652.71;1774521;80;21474;-77
2021/05/13 08:08:31;;;;;;;5.55;2.30;;;;;;;29.04;26.66;100653.09;1774643;80;21037;-79
2021/05/13 08:11:00;;;;;;;4.55;2.02;;;;;;;29.21;26.34;100658.33;1774448;80;20914;-79
2021/05/13 08:13:29;;;;;;;2.55;1.87;;;;;;;29.28;25.28;100661.85;1774430;80;20935;-77
2021/05/13 08:15:55;;;;;;;2.45;2.25;;;;;;;29.28;25.22;100662.34;1774743;80;21711;-78
2021/05/13 08:18:23;;;;;;;2.92;2.12;;;;;;;29.05;25.13;100667.70;1774424;80;21074;-78
2021/05/13 08:20:50;;;;;;;2.37;2.17;;;;;;;28.98;25.63;100663.38;1774463;80;20923;-77
2021/05/13 08:23:17;;;;;;;3.33;2.08;;;;;;;29.01;25.31;100662.95;1774611;80;21455;-78
2021/05/13 08:25:44;;;;;;;4.20;2.00;;;;;;;29.04;25.23;100660.66;1774759;80;20986;-79
2021/05/13 08:28:11;;;;;;;2.20;2.00;;;;;;;29.09;25.03;100664.92;1774597;80;21052;-76
2021/05/13 08:30:38;;;;;;;2.80;2.27;;;;;;;28.90;24.89;100659.02;1774608;80;20907;-78
2021/05/13 08:33:05;;;;;;;3.83;3.30;;;;;;;28.78;25.73;100650.76;1774744;80;20966;-77
2021/05/13 08:39:22;;;;;;;2.60;2.40;;;;;;;28.77;26.05;100646.41;1684274;81;20930;-74
2021/05/13 08:41:55;;;;;;;3.22;2.20;;;;;;;28.88;27.14;100657.05;1755526;81;21090;-74
2021/05/13 08:44:28;;;;;;;3.65;2.40;;;;;;;29.00;26.44;100651.84;1727010;81;20904;-71
2021/05/13 08:46:59;;;;;;;2.90;2.50;;;;;;;29.04;27.16;100652.56;1744874;81;21426;-75
2021/05/13 08:49:29;;;;;;;2.20;2.00;;;;;;;29.09;26.58;100646.55;1725130;82;21544;-73
2021/05/13 08:51:59;;;;;;;2.77;2.58;;;;;;;29.11;25.53;100652.03;1745455;82;20940;-74
2021/05/13 08:54:30;;;;;;;4.28;3.52;;;;;;;29.07;26.17;100639.14;1745347;82;21406;-74
2021/05/13 08:56:57;;;;;;;2.37;2.17;;;;;;;29.12;26.07;100633.95;1745415;82;20881;-74
2021/05/13 08:59:33;;;;;;;6.53;4.10;;;;;;;29.25;26.17;100646.05;1700360;82;20901;-73
2021/05/13 09:02:02;;;;;;;7.20;3.75;;;;;;;29.33;25.17;100647.70;1719639;83;20973;-74
2021/05/13 09:04:49;;;;;;;3.50;3.22;;;;;;;29.45;25.83;100651.89;1664335;83;20901;-73
2021/05/13 09:07:22;;;;;;;3.67;2.70;;;;;;;29.55;24.96;100644.16;1719331;83;20977;-74
2021/05/13 09:10:08;;;;;;;;;;;;;;;29.58;23.99;100646.94;1667261;83;21021;-73
2021/05/13 09:12:53;;;;;;;3.80;2.52;;;;;;;29.39;24.80;100643.29;1718665;83;20196;-73
2021/05/13 09:15:28;;;;;;;2.62;2.42;;;;;;;29.22;24.77;100640.27;1719657;83;20957;-75
2021/05/13 09:18:02;;;;;;;3.80;2.98;;;;;;;28.94;26.20;100633.27;1691051;83;20941;-74
2021/05/13 09:20:38;;;;;;;4.62;2.58;;;;;;;28.63;26.61;100628.58;1719928;83;21144;-74
2021/05/13 09:23:22;;;;;;;2.90;2.70;;;;;;;28.56;27.07;100626.42;1667450;83;21133;-72
2021/05/13 09:26:16;;;;;;;3.27;3.08;;;;;;;28.53;25.63;100626.33;1694801;83;20874;-73
2021/05/13 09:28:46;;;;;;;3.05;2.47;;;;;;;28.59;25.40;100638.13;1695764;83;20992;-73
2021/05/13 09:31:36;;;;;;;3.33;3.02;;;;;;;28.46;24.87;100641.14;1668590;83;21021;-74
2021/05/13 09:34:07;;;;;;;4.50;3.27;;;;;;;28.36;25.89;100650.16;1659349;83;22574;-73
2021/05/13 09:36:38;;;;;;;4.95;2.92;;;;;;;28.39;26.17;100643.02;1690491;83;21525;-73
2021/05/13 09:39:23;;;;;;;2.60;2.40;;;;;;;28.59;26.87;100643.52;1676561;82;20965;-74
2021/05/13 09:42:02;;;;;;;3.98;2.98;;;;;;;28.71;25.05;100641.33;1685968;82;21335;-74
2021/05/13 09:44:34;;;;;;;3.42;2.37;;;;;;;28.69;25.27;100637.19;1714370;82;21402;-74
2021/05/13 09:47:21;;;;;;;5.62;4.03;;;;;;;28.85;26.32;100642.64;1735406;82;21196;-75
2021/05/13 09:50:03;;;;;;;2.17;1.87;;;;;;;28.93;23.82;100637.84;1669673;82;20919;-75
2021/05/13 09:52:40;;;;;;;3.25;2.58;;;;;;;28.91;22.80;100639.92;1665340;82;20885;-76
2021/05/13 09:55:23;;;;;;;4.00;3.58;;;;;;;28.60;22.74;100635.23;1686434;82;21361;-74
2021/05/13 09:58:09;;;;;;;3.98;1.92;;;;;;;28.41;24.03;100638.22;1735632;82;20881;-76
2021/05/13 10:00:59;;;;;;;4.65;1.82;;;;;;;28.46;22.62;100643.84;1657196;82;20894;-75
2021/05/13 10:03:30;;;;;;;3.77;3.22;;;;;;;28.36;22.49;100639.91;1732945;80;20972;-74
2021/05/13 10:05:58;;;;;;;4.83;2.90;;;;;;;28.20;22.54;100635.23;1735413;82;21716;-77
2021/05/13 10:08:25;;;;;;;4.78;2.40;;;;;;;28.24;22.62;100639.70;1735560;82;21016;-78
2021/05/13 10:10:55;;;;;;;4.20;3.00;;;;;;;28.36;23.87;100627.77;1735640;82;20980;-75
2021/05/13 10:13:28;;;;;;;2.95;2.62;;;;;;;28.51;24.27;100636.49;1735291;82;21487;-75
2021/05/13 10:15:52;;;;;;;4.17;3.17;;;;;;;28.71;24.90;100637.80;1691099;82;21331;-74
2021/05/13 10:18:30;;;;;;;4.90;3.05;;;;;;;28.88;23.63;100632.27;1667766;82;20888;-75
2021/05/13 10:21:02;;;;;;;3.55;3.25;;;;;;;29.00;22.45;100629.72;1735414;82;20945;-75
2021/05/13 10:23:30;;;;;;;4.05;3.60;;;;;;;28.87;22.36;100627.88;1735563;82;20890;-75
2021/05/13 10:26:03;;;;;;;3.58;2.95;;;;;;;28.69;23.04;100616.41;1735641;82;21236;-75
2021/05/13 10:28:32;;;;;;;3.80;3.42;;;;;;;28.66;22.85;100617.38;1714732;82;20874;-73
2021/05/13 10:31:03;;;;;;;7.90;4.78;;;;;;;28.53;22.58;100618.23;1735423;82;20893;-75
2021/05/13 10:33:50;;;;;;;4.87;4.15;;;;;;;28.56;22.39;100615.63;1641418;82;21424;-73
2021/05/13 10:36:19;;;;;;;5.33;4.30;;;;;;;28.35;23.07;100619.34;1734777;82;20893;-74
2021/05/13 10:38:51;;;;;;;8.30;4.58;;;;;;;28.30;23.62;100618.62;1715343;82;21006;-75
2021/05/13 10:41:37;;;;;;;8.18;5.72;;;;;;;28.36;23.76;100622.36;1746703;81;21411;-74
2021/05/13 10:44:13;;;;;;;9.58;6.45;;;;;;;28.46;23.85;100625.48;1700516;81;20961;-76
2021/05/13 10:46:55;;;;;;;9.40;5.47;;;;;;;28.53;24.19;100620.10;1747455;81;20951;-73
2021/05/13 10:49:26;;;;;;;9.48;4.97;;;;;;;28.65;23.47;100618.41;1679203;82;21458;-76
2021/05/13 10:51:57;;;;;;;6.53;5.20;;;;;;;28.72;23.29;100611.97;1747799;81;21087;-75
2021/05/13 10:54:42;;;;;;;10.85;7.10;;;;;;;28.76;23.33;100613.70;1650267;82;20926;-76
2021/05/13 10:57:20;;;;;;;8.88;6.90;;;;;;;28.79;24.00;100613.79;1747731;82;20890;-74
2021/05/13 11:00:11;;;;;;;8.53;7.58;;;;;;;28.82;23.94;100609.34;1747503;82;20914;-76
2021/05/13 11:02:46;;;;;;;9.90;7.10;;;;;;;28.83;24.42;100608.28;1746316;82;21021;-76
2021/05/13 11:05:38;;;;;;;10.58;6.67;;;;;;;28.77;26.35;100615.38;1747659;81;21087;-77
2021/05/13 11:08:17;;;;;;;7.15;5.37;;;;;;;28.68;24.42;100617.47;1747353;82;21478;-76
2021/05/13 11:11:00;;;;;;;7.78;5.25;;;;;;;28.05;25.11;100615.73;1747585;82;20962;-76
2021/05/13 11:13:44;;;;;;;5.20;4.72;;;;;;;27.62;26.36;100608.83;1747437;82;20975;-79
2021/05/13 11:16:48;;;;;;;7.15;4.95;;;;;;;27.40;25.96;100605.45;1747817;81;20982;-73
2021/05/13 11:19:22;;;;;;;7.03;4.67;;;;;;;27.20;26.77;100593.77;1747456;82;21081;-75
2021/05/13 11:22:05;;;;;;;5.37;4.75;;;;;;;27.07;26.26;100593.20;1747804;81;20934;-73
2021/05/13 11:24:37;;;;;;;7.08;5.22;;;;;;;26.80;26.71;100595.77;1749002;82;20985;-75
2021/05/13 11:27:06;;;;;;;5.62;3.90;;;;;;;26.64;26.96;100590.73;1748128;82;21038;-78
2021/05/13 11:29:45;;;;;;;5.80;3.85;;;;;;;26.59;27.13;100588.64;1749885;81;20981;-76
2021/05/13 11:32:14;;;;;;;7.30;4.55;;;;;;;26.38;27.81;100592.70;1748436;82;21078;-76
2021/05/13 11:34:44;;;;;;;5.30;4.80;;;;;;;26.20;26.93;100591.85;1727448;82;21005;-76
2021/05/13 11:37:34;;;;;;;3.90;3.55;;;;;;;25.93;27.59;100590.81;1749684;82;20921;-76
2021/05/13 11:40:28;;;;;;;8.60;6.33;;;;;;;25.80;28.08;100602.23;1748246;81;20961;-77
2021/05/13 11:43:19;;;;;;;;;;;;;;;25.64;29.17;100600.64;1750589;82;21007;-76
2021/05/13 11:45:45;;;;;;;4.30;3.65;;;;;;;25.39;28.06;100598.80;1653080;86;21109;-75
2021/05/13 11:48:26;;;;;;;8.38;3.50;;;;;;;25.11;28.02;100590.11;1653340;86;20950;-76